Baton Rouge, Louisiana
Current Conditions -  °F | °C
As of 2:53 AM on Tuesday 21 Oct 2014 (Local Time) from KBTR Reporting Station
Clear Clear  
Wind Chill: 57°   Ceiling: Unl
Heat Index: 57°   Visibility: 10mi
Dew Point: 53°   Wind: 3mph
Humidity: 87%   Direction: 30°NNE
Pressure: 30.01"   Gusts: NA
Location:  30.44°N, 91.19°W
Report Text: KBTR 210753Z AUTO 03003KT 10SM CLR 14/12 A3001 RMK AO2 SLP163 T01390117 TSNO
Loading
Personal Weather Stations






























Interactive Weather Map New forecast layout! Learn more

10-Day Weather Forecast

Advertisements
Track Severe Weather on mobile